Nags Head, NC (27959)

3:02 AM EDT on June 25, 2017 (GMT -0400)
South Ridge | | Change Station
Active Advisory: Beach Hazard Statement

Elev 10 ft 35.95 °N, 75.63 °W | Updated 12 seconds ago

Mostly Cloudy
Mostly Cloudy
74.3 °F
Feels Like 72 °F
N
4.0
Wind Variable Wind from WSW
Gusts 4.0 mph

Today
High -- | Low -- °F
--% Chance of Precip.
Yesterday
High -- | Low -- °F
Precip. -- in
Pressure 29.96 in
Visibility 10.0 miles
Clouds Scattered Clouds 400 ft
Mostly Cloudy 9500 ft
Mostly Cloudy 11000 ft
Heat Index 72 °F
Dew Point 72 °F
Humidity 94%
Rainfall 0.01 in
Snow Depth Not available.
5:47 AM 8:23 PM
New Moon, 2% visible
METAR KFFA 250645Z AUTO 25005KT 10SM SCT004 BKN095 BKN110 24/24 A2996 RMK AO2 T02360236
Pressure 29.96 in
Visibility 10.0 miles
Clouds Scattered Clouds 400 ft
Mostly Cloudy 9500 ft
Mostly Cloudy 11000 ft
Heat Index 72 °F
Dew Point 72 °F
Humidity 94%
Rainfall 0.01 in
Snow Depth Not available.
5:47 AM 8:23 PM
New Moon, 2% visible
METAR KFFA 250645Z AUTO 25005KT 10SM SCT004 BKN095 BKN110 24/24 A2996 RMK AO2 T02360236

Get Your Daily Forecast Email!

Thanks for signing up!

Be on the lookout for a verification email in your inbox.

You'll start receiving severe weather alerts in your inbox..

×

10-Day Weather Forecast

Almanac

Astronomy

Jun. 25, 2017 Rise Set
Actual Time
Civil Twilight
Nautical Twilight
Astronomical Twilight
Moon
Length of Visible Light
Length of Day
Tomorrow will be .
, % of the Moon is Illuminated

Today's Extremes

State Highs State Lows

Community

WunderPhotos

Category 6

Welcome to Category 6. This is the collective home for Weather Underground's featured writeups by Dr. Jeff Masters (right), Bob Henson (left), Chris Burt, and other regular contributors.

Nearby

Air Quality

  Air Quality AQ Index Pollutant
Not available.

Snow Depth

Station Depth Elevation

Earthquake Activity

City Distance Mag. Time & Date
Minimum magnitude displayed is 2.5.

Coastal Water Temperatures

Place Temperature

Stations

Nearby Weather Stations

Station Location Temp. Windchill Dew Point Humidity Wind Precip. Elev Updated Type
                   

Watches & Warnings

Beach Hazard Statement
Issued: 8:49 PM EDT Jun. 24, 2017 – National Weather Service

... Beach hazards statement in effect through Sunday evening...

The National Weather Service in Newport/Morehead City has issued
a beach hazards statement, which is in effect through Sunday
evening.

* Hazards... high threat of rip currents.

* Location... from Surf City to Cape Lookout.

* Timing and tides... the most likely time for strong rip currents
to occur is a couple hours either side of low tide, which will
occur around 3 PM today.

Precautionary/preparedness actions...

If caught in a rip current remain calm. Don't fight the current.
Swim in a direction following the shoreline. When out of the
current, swim back to shore. If tired, float or tread water until
out of the rip current. If unable to escape, face the shore and
call or wave for help.